West Chester, Ohio
Current Conditions -  °F | °C
As of 1:53 PM on Monday 20 Oct 2014 (Local Time) from KHAO Reporting Station
Broken Clouds Broken Clouds  
Wind Chill: 63°   Ceiling: 8000
Heat Index: 63°   Visibility: 10mi
Dew Point: 49°   Wind: 12mph
Humidity: 60%   Direction: 210°SSW
Pressure: 29.89"   Gusts: 20mph
Location:  39.33°N, 84.4°W
Report Text: KHAO 201753Z AUTO 21010G17KT 190V250 10SM SCT070 BKN080 17/09 A2989 RMK AO2 SLP121 T01720094 10183 20083 58028
Loading
Personal Weather Stations






























Interactive Weather Map
Tropical Storm Tracking
New forecast layout! Learn more

10-Day Weather Forecast

Advertisements
Track Severe Weather on mobile